Time;durP1;ratioP1;P1;durP2;ratioP2;P2;SDS_P1;SDS_P2;PMS_P1;PMS_P2;Temp;Humidity;BMP_temperature;BMP_pressure;BME280_temperature;BME280_humidity;BME280_pressure;Samples;Min_cycle;Max_cycle;Signal;HPM_P1;HPM_P2
2023/07/17 00:00:15;;;;;;;0.63;0.60;;;;;;;15.41;100.00;99725.31;5022528;28;20490;-65
2023/07/17 00:02:42;;;;;;;0.73;0.70;;;;;;;15.30;100.00;99715.56;5029865;28;20053;-65
2023/07/17 00:05:10;;;;;;;2.47;0.75;;;;;;;15.26;100.00;99734.34;5032060;28;20494;-65
2023/07/17 00:07:38;;;;;;;3.00;0.95;;;;;;;15.29;100.00;99734.13;5032288;28;20088;-64
2023/07/17 00:10:07;;;;;;;0.80;0.70;;;;;;;15.23;100.00;99734.56;5030328;28;20041;-65
2023/07/17 00:12:34;;;;;;;0.82;0.65;;;;;;;15.13;100.00;99729.94;5032271;28;20449;-65
2023/07/17 00:15:04;;;;;;;1.27;0.70;;;;;;;15.10;100.00;99735.47;5018019;28;20041;-65
2023/07/17 00:17:32;;;;;;;0.93;0.60;;;;;;;15.27;100.00;99744.78;5031413;28;20128;-65
2023/07/17 00:20:00;;;;;;;1.92;0.80;;;;;;;15.09;100.00;99743.50;5029313;28;20056;-65
2023/07/17 00:22:26;;;;;;;1.58;0.70;;;;;;;15.09;100.00;99749.59;5032253;28;20052;-65
2023/07/17 00:24:53;;;;;;;1.27;0.70;;;;;;;15.08;100.00;99745.25;5014126;28;20060;-65
2023/07/17 00:27:21;;;;;;;1.45;0.98;;;;;;;15.15;100.00;99756.22;5032327;28;20045;-66
2023/07/17 00:29:47;;;;;;;0.60;0.60;;;;;;;15.21;100.00;99741.72;5024792;28;20050;-65
2023/07/17 00:32:15;;;;;;;0.93;0.68;;;;;;;15.28;100.00;99759.66;5019364;28;20049;-66
2023/07/17 00:34:42;;;;;;;2.53;0.77;;;;;;;15.28;100.00;99756.16;5017414;28;20054;-66
2023/07/17 00:37:08;;;;;;;1.27;0.77;;;;;;;15.20;100.00;99762.00;5028418;28;20057;-65
2023/07/17 00:39:35;;;;;;;1.58;0.80;;;;;;;14.97;100.00;99751.31;5027116;28;20499;-65
2023/07/17 00:42:03;;;;;;;0.85;0.70;;;;;;;14.95;100.00;99749.75;5014065;28;20042;-65
2023/07/17 00:44:30;;;;;;;3.55;0.80;;;;;;;14.98;100.00;99766.19;5013906;28;20049;-66
2023/07/17 00:46:56;;;;;;;2.45;0.70;;;;;;;15.00;100.00;99763.44;5013353;28;20372;-66
2023/07/17 00:49:27;;;;;;;2.03;0.88;;;;;;;14.98;100.00;99774.09;5027344;28;20057;-66
2023/07/17 00:51:56;;;;;;;2.45;0.88;;;;;;;14.94;100.00;99774.41;5030471;28;20053;-66
2023/07/17 00:54:23;;;;;;;2.20;0.88;;;;;;;14.90;100.00;99770.31;5031339;28;20139;-66
2023/07/17 00:56:50;;;;;;;2.10;0.98;;;;;;;14.90;100.00;99772.94;5020351;28;20054;-66
2023/07/17 00:59:17;;;;;;;2.30;0.90;;;;;;;14.83;100.00;99772.53;5026379;28;20534;-66
2023/07/17 01:01:44;;;;;;;1.42;0.70;;;;;;;14.89;100.00;99779.16;5016996;28;20058;-66
2023/07/17 01:04:11;;;;;;;0.90;0.70;;;;;;;14.91;100.00;99775.47;5030970;28;20300;-65
2023/07/17 01:06:40;;;;;;;3.55;1.00;;;;;;;14.98;100.00;99770.63;5031518;28;20084;-65
2023/07/17 01:09:11;;;;;;;3.28;0.90;;;;;;;14.70;100.00;99775.19;5017344;28;20058;-65
2023/07/17 01:11:38;;;;;;;1.75;0.88;;;;;;;14.80;100.00;99781.50;5012707;28;20045;-65
2023/07/17 01:14:05;;;;;;;3.10;1.00;;;;;;;14.90;100.00;99789.59;5017412;28;20103;-66
2023/07/17 01:16:31;;;;;;;2.28;0.88;;;;;;;14.85;100.00;99780.34;5011984;28;20096;-66
2023/07/17 01:18:58;;;;;;;4.22;1.17;;;;;;;14.60;100.00;99787.31;5030290;28;20132;-65
2023/07/17 01:21:27;;;;;;;1.98;0.80;;;;;;;14.75;100.00;99795.94;5022184;28;20049;-66
2023/07/17 01:23:56;;;;;;;2.58;1.10;;;;;;;14.78;100.00;99796.59;5030134;28;20378;-66
2023/07/17 01:26:23;;;;;;;4.20;0.80;;;;;;;14.68;100.00;99781.50;5030006;28;20144;-66
2023/07/17 01:28:50;;;;;;;3.40;1.00;;;;;;;14.68;100.00;99798.19;5016462;28;20069;-65
2023/07/17 01:31:17;;;;;;;3.10;1.30;;;;;;;14.65;100.00;99798.38;5023300;28;20049;-66
2023/07/17 01:33:44;;;;;;;2.05;0.90;;;;;;;14.57;100.00;99800.66;5012712;28;20046;-66
2023/07/17 01:36:11;;;;;;;2.13;0.90;;;;;;;14.65;100.00;99787.84;5030795;28;20060;-65
2023/07/17 01:38:38;;;;;;;2.30;1.00;;;;;;;14.71;100.00;99810.28;5030870;28;20057;-65
2023/07/17 01:41:05;;;;;;;2.00;1.00;;;;;;;14.39;100.00;99797.50;5028961;28;20056;-65
2023/07/17 01:43:31;;;;;;;2.85;1.40;;;;;;;14.46;100.00;99811.94;5030002;28;20494;-66
2023/07/17 01:45:58;;;;;;;3.10;0.98;;;;;;;14.60;100.00;99817.13;5013122;28;20050;-66
2023/07/17 01:48:25;;;;;;;2.30;1.00;;;;;;;14.61;100.00;99813.56;5030552;28;20529;-65
2023/07/17 01:50:51;;;;;;;2.88;0.95;;;;;;;14.61;100.00;99810.94;5019373;28;20052;-66
2023/07/17 01:53:20;;;;;;;2.40;1.10;;;;;;;14.74;100.00;99820.63;5029706;28;20052;-66
2023/07/17 01:55:47;;;;;;;5.05;1.15;;;;;;;14.71;100.00;99823.47;5011728;28;20053;-65
2023/07/17 01:58:14;;;;;;;4.70;1.10;;;;;;;14.70;100.00;99811.25;5030468;28;20641;-65
2023/07/17 02:00:41;;;;;;;2.15;0.90;;;;;;;14.68;100.00;99821.03;5016871;28;20050;-65
2023/07/17 02:03:08;;;;;;;3.03;1.00;;;;;;;14.67;100.00;99819.34;5022943;28;20046;-66
2023/07/17 02:05:35;;;;;;;2.30;1.00;;;;;;;14.74;100.00;99821.44;5024145;28;20049;-66
2023/07/17 02:08:02;;;;;;;2.67;1.00;;;;;;;14.53;100.00;99821.09;5024580;28;20072;-66
2023/07/17 02:10:29;;;;;;;3.88;0.93;;;;;;;14.38;100.00;99809.00;5000339;28;20483;-65
2023/07/17 02:12:56;;;;;;;4.32;0.90;;;;;;;14.48;100.00;99820.56;5028065;28;20045;-66
2023/07/17 02:15:23;;;;;;;3.13;1.00;;;;;;;14.46;100.00;99822.47;5029325;28;20408;-66
2023/07/17 02:17:49;;;;;;;5.95;1.33;;;;;;;14.45;100.00;99815.53;5027670;28;20049;-66
2023/07/17 02:20:16;;;;;;;2.50;0.98;;;;;;;14.47;100.00;99831.25;5016279;28;20049;-66
2023/07/17 02:22:43;;;;;;;3.67;1.10;;;;;;;14.43;100.00;99826.19;5025114;28;20490;-66
2023/07/17 02:25:10;;;;;;;3.10;1.00;;;;;;;14.49;100.00;99822.28;5022306;28;20480;-65
2023/07/17 02:27:37;;;;;;;8.43;1.30;;;;;;;14.62;100.00;99838.09;5022136;28;20052;-65
2023/07/17 02:30:04;;;;;;;1.90;0.93;;;;;;;14.63;100.00;99836.34;5021068;28;20137;-65
2023/07/17 02:32:31;;;;;;;3.17;1.13;;;;;;;14.43;100.00;99833.25;5020317;28;20506;-66
2023/07/17 02:34:58;;;;;;;2.20;0.98;;;;;;;14.37;100.00;99834.47;5029713;28;20053;-66
2023/07/17 02:37:25;;;;;;;2.00;0.95;;;;;;;14.23;100.00;99832.78;5030337;28;20057;-65
2023/07/17 02:39:52;;;;;;;4.45;1.20;;;;;;;14.42;100.00;99845.53;5025447;28;20053;-65
2023/07/17 02:42:19;;;;;;;2.22;0.90;;;;;;;14.45;100.00;99841.88;5033712;28;20047;-65
2023/07/17 02:44:47;;;;;;;1.73;1.02;;;;;;;14.49;100.00;99845.97;5033361;28;20060;-65
2023/07/17 02:47:14;;;;;;;3.55;1.02;;;;;;;14.51;100.00;99854.63;5048093;28;20497;-65
2023/07/17 02:49:42;;;;;;;4.53;1.17;;;;;;;14.48;100.00;99857.44;5031506;28;20490;-64
2023/07/17 02:52:09;;;;;;;2.97;1.15;;;;;;;14.42;100.00;99858.72;5033792;28;20057;-64
2023/07/17 02:54:39;;;;;;;4.63;1.30;;;;;;;14.21;100.00;99850.47;5033344;28;20073;-65
2023/07/17 02:57:06;;;;;;;4.05;1.00;;;;;;;14.37;100.00;99863.44;5033662;28;20530;-65
2023/07/17 02:59:32;;;;;;;9.85;1.30;;;;;;;14.45;100.00;99865.56;5024222;28;20056;-65
2023/07/17 03:01:59;;;;;;;4.88;1.48;;;;;;;14.37;100.00;99862.59;5027575;28;20053;-65
2023/07/17 03:04:27;;;;;;;3.80;1.08;;;;;;;14.24;100.00;99866.06;5033429;28;20081;-66
2023/07/17 03:06:55;;;;;;;3.50;1.40;;;;;;;14.35;100.00;99869.78;5034042;28;20415;-65
2023/07/17 03:09:22;;;;;;;1.92;0.90;;;;;;;14.29;100.00;99871.03;5029924;28;20057;-66
2023/07/17 03:11:49;;;;;;;3.20;1.10;;;;;;;14.38;100.00;99870.41;5025799;28;20049;-66
2023/07/17 03:14:16;;;;;;;2.28;0.98;;;;;;;14.39;100.00;99881.78;5033111;28;20061;-66
2023/07/17 03:16:42;;;;;;;3.88;1.00;;;;;;;14.34;100.00;99874.22;5032954;28;20426;-65
2023/07/17 03:19:09;;;;;;;3.10;1.15;;;;;;;14.24;100.00;99881.84;5021300;28;20566;-65
2023/07/17 03:21:36;;;;;;;2.13;1.00;;;;;;;14.22;100.00;99878.50;5014464;28;20119;-65
2023/07/17 03:24:04;;;;;;;3.10;1.23;;;;;;;14.21;100.00;99884.69;5032267;28;20483;-65
2023/07/17 03:26:31;;;;;;;2.88;1.00;;;;;;;14.31;100.00;99882.31;5033075;28;20479;-65
2023/07/17 03:28:58;;;;;;;4.82;1.10;;;;;;;14.37;100.00;99892.41;5032963;28;20057;-65
2023/07/17 03:31:24;;;;;;;2.20;0.90;;;;;;;14.41;100.00;99893.06;5017271;28;20046;-65
2023/07/17 03:33:51;;;;;;;3.20;1.00;;;;;;;14.26;100.00;99886.19;5033297;28;20406;-65
2023/07/17 03:36:18;;;;;;;2.30;1.10;;;;;;;14.32;100.00;99891.03;5033003;28;20386;-65
2023/07/17 03:38:45;;;;;;;2.53;1.05;;;;;;;14.34;100.00;99897.03;5032887;28;20390;-65
2023/07/17 03:41:11;;;;;;;2.67;0.95;;;;;;;14.28;100.00;99903.56;5014747;28;20089;-65
2023/07/17 03:43:38;;;;;;;1.85;1.00;;;;;;;14.07;100.00;99904.97;5030197;28;20041;-65
2023/07/17 03:46:04;;;;;;;2.92;1.00;;;;;;;14.04;100.00;99909.50;5031357;28;20140;-64
2023/07/17 03:48:31;;;;;;;2.85;1.05;;;;;;;14.09;100.00;99903.91;5032602;28;20053;-65
2023/07/17 03:50:58;;;;;;;3.33;0.90;;;;;;;14.07;100.00;99895.28;5015381;28;20148;-65
2023/07/17 03:53:28;;;;;;;2.88;1.10;;;;;;;14.18;100.00;99908.59;5026940;28;20049;-65
2023/07/17 03:55:55;;;;;;;1.77;0.90;;;;;;;14.02;100.00;99923.69;5032575;28;20134;-65
2023/07/17 03:58:22;;;;;;;2.33;0.90;;;;;;;14.03;100.00;99909.59;5032144;28;20081;-66
2023/07/17 04:00:49;;;;;;;2.42;0.80;;;;;;;14.10;100.00;99910.06;5022622;28;20055;-65
2023/07/17 04:03:16;;;;;;;2.95;0.90;;;;;;;14.12;100.00;99919.53;5031413;28;20050;-66
2023/07/17 04:05:44;;;;;;;1.70;0.80;;;;;;;14.31;100.00;99921.81;5018497;28;20054;-65
2023/07/17 04:08:11;;;;;;;2.25;0.80;;;;;;;13.94;100.00;99899.69;5032669;28;20080;-65
2023/07/17 04:10:37;;;;;;;3.53;0.98;;;;;;;13.88;100.00;99921.13;5017694;28;20057;-65
2023/07/17 04:13:04;;;;;;;2.38;0.90;;;;;;;14.05;100.00;99921.72;5031663;28;20402;-66
2023/07/17 04:15:31;;;;;;;1.35;0.77;;;;;;;13.87;100.00;99920.28;5031469;28;20061;-66
2023/07/17 04:17:57;;;;;;;2.90;0.90;;;;;;;13.95;100.00;99917.13;5018922;28;20475;-65
2023/07/17 04:20:24;;;;;;;2.22;1.00;;;;;;;14.00;100.00;99929.06;5020803;28;20062;-66
2023/07/17 04:22:51;;;;;;;2.20;0.77;;;;;;;14.05;100.00;99928.75;5029706;28;20083;-65
2023/07/17 04:25:18;;;;;;;2.60;1.15;;;;;;;14.00;100.00;99926.41;5031441;28;20045;-65
2023/07/17 04:27:44;;;;;;;3.60;0.90;;;;;;;13.84;100.00;99933.63;5031680;28;20049;-65
2023/07/17 04:30:11;;;;;;;2.65;0.90;;;;;;;13.73;100.00;99936.94;5028779;28;20045;-65
2023/07/17 04:32:38;;;;;;;2.60;0.90;;;;;;;13.84;100.00;99938.88;5030810;28;20056;-66
2023/07/17 04:35:06;;;;;;;6.10;1.10;;;;;;;13.74;100.00;99950.94;5031079;28;20045;-65
2023/07/17 04:37:32;;;;;;;3.53;0.93;;;;;;;13.74;100.00;99950.94;5031217;28;20065;-65
2023/07/17 04:39:59;;;;;;;2.03;0.95;;;;;;;13.66;100.00;99949.63;5012322;28;20056;-65
2023/07/17 04:42:26;;;;;;;2.65;0.95;;;;;;;13.85;100.00;99951.13;5032319;28;20060;-65
2023/07/17 04:44:53;;;;;;;2.20;0.88;;;;;;;13.85;100.00;99959.84;5018211;28;20395;-66
2023/07/17 04:47:19;;;;;;;1.55;0.80;;;;;;;13.74;100.00;99953.56;5014084;28;20391;-64
2023/07/17 04:49:46;;;;;;;4.22;1.13;;;;;;;13.89;100.00;99957.84;5028174;28;20560;-64
2023/07/17 04:52:13;;;;;;;3.25;1.00;;;;;;;13.96;100.00;99958.31;5032260;28;20479;-65
2023/07/17 04:54:39;;;;;;;2.30;0.90;;;;;;;13.86;100.00;99966.81;5031221;28;20057;-65
2023/07/17 04:57:06;;;;;;;2.58;1.00;;;;;;;13.81;100.00;99968.88;5015996;28;20057;-65
2023/07/17 04:59:33;;;;;;;1.60;0.93;;;;;;;13.88;100.00;99960.59;5026026;28;20297;-66
2023/07/17 05:01:59;;;;;;;1.83;0.90;;;;;;;13.79;100.00;99980.44;5011950;28;20059;-66
2023/07/17 05:04:26;;;;;;;1.75;0.88;;;;;;;13.81;100.00;99976.78;5030856;28;20414;-66
2023/07/17 05:06:53;;;;;;;1.25;0.80;;;;;;;13.86;100.00;99987.00;5029635;28;20438;-66
2023/07/17 05:09:19;;;;;;;2.25;0.98;;;;;;;13.86;100.00;99987.00;5028539;28;20411;-65
2023/07/17 05:11:46;;;;;;;2.10;0.80;;;;;;;13.98;100.00;99998.53;5023236;28;20057;-65
2023/07/17 05:14:12;;;;;;;2.90;1.10;;;;;;;13.75;100.00;99969.25;5013493;28;20693;-65
2023/07/17 05:16:39;;;;;;;1.45;0.80;;;;;;;13.47;100.00;99946.47;5030320;28;20478;-65
2023/07/17 05:19:06;;;;;;;1.48;0.80;;;;;;;13.78;100.00;100002.44;5030137;28;20304;-65
2023/07/17 05:21:33;;;;;;;3.10;0.90;;;;;;;13.88;100.00;100003.53;5011792;28;20110;-66
2023/07/17 05:24:00;;;;;;;1.55;0.88;;;;;;;14.03;100.00;100013.09;5007475;28;20049;-65
2023/07/17 05:26:26;;;;;;;1.58;0.80;;;;;;;13.89;100.00;100002.59;5031138;28;20507;-65
2023/07/17 05:28:53;;;;;;;2.13;0.90;;;;;;;13.93;100.00;100019.88;5005252;28;20071;-65
2023/07/17 05:31:21;;;;;;;1.52;0.82;;;;;;;13.96;100.00;100013.59;5024105;28;20135;-65
2023/07/17 05:33:49;;;;;;;2.50;1.00;;;;;;;13.89;100.00;100021.00;5022744;28;20078;-66
2023/07/17 05:36:16;;;;;;;1.35;0.80;;;;;;;14.00;100.00;100029.06;5022880;28;20049;-66
2023/07/17 05:38:42;;;;;;;1.35;0.80;;;;;;;13.97;100.00;100029.28;5029725;28;20045;-65
2023/07/17 05:41:09;;;;;;;3.67;0.90;;;;;;;14.08;100.00;100019.84;5023791;28;20392;-66
2023/07/17 05:43:36;;;;;;;1.77;0.85;;;;;;;14.07;100.00;100033.97;5015810;28;20123;-65
2023/07/17 05:46:02;;;;;;;2.08;0.85;;;;;;;14.05;100.00;100037.53;5037080;28;20177;-66
2023/07/17 05:48:29;;;;;;;1.42;0.80;;;;;;;13.96;100.00;100039.91;5011938;28;20045;-66
2023/07/17 05:50:56;;;;;;;1.38;0.80;;;;;;;13.99;100.00;100039.72;5033413;28;20053;-65
2023/07/17 05:53:23;;;;;;;1.20;0.70;;;;;;;13.93;100.00;100030.41;5042902;28;20048;-65
2023/07/17 05:55:50;;;;;;;1.70;0.90;;;;;;;13.90;100.00;100042.91;5030674;28;20501;-66
2023/07/17 05:58:16;;;;;;;1.58;0.80;;;;;;;13.81;100.00;100045.19;5028735;28;20057;-66
2023/07/17 06:00:45;;;;;;;1.35;0.70;;;;;;;13.83;100.00;100045.09;5023547;28;20064;-65
2023/07/17 06:03:12;;;;;;;2.13;1.00;;;;;;;13.94;100.00;100041.78;5029839;28;20468;-66
2023/07/17 06:05:39;;;;;;;1.60;0.80;;;;;;;14.02;100.00;100066.69;5030186;28;20407;-67
2023/07/17 06:08:06;;;;;;;1.70;0.80;;;;;;;13.93;100.00;100059.34;5030357;28;20475;-66
2023/07/17 06:10:32;;;;;;;1.17;0.80;;;;;;;14.12;100.00;100072.19;5010866;28;20502;-66
2023/07/17 06:12:59;;;;;;;1.83;0.85;;;;;;;14.21;100.00;100073.41;5029806;28;20458;-66
2023/07/17 06:15:27;;;;;;;2.80;0.93;;;;;;;14.12;100.00;100074.00;5029964;28;20480;-66
2023/07/17 06:17:53;;;;;;;1.10;0.80;;;;;;;14.11;100.00;100067.03;5019101;28;20052;-66
2023/07/17 06:20:20;;;;;;;1.27;0.80;;;;;;;14.14;100.00;100090.53;5027190;28;20136;-65
2023/07/17 06:22:47;;;;;;;2.95;1.00;;;;;;;14.17;100.00;100078.03;5029058;28;20045;-65
2023/07/17 06:25:14;;;;;;;1.77;0.90;;;;;;;14.17;100.00;100098.25;5032822;28;20049;-66
2023/07/17 06:27:41;;;;;;;2.65;0.80;;;;;;;13.98;100.00;100098.53;5029656;28;20111;-65
2023/07/17 06:30:08;;;;;;;3.97;1.10;;;;;;;14.10;100.00;100092.53;5023937;28;20482;-65
2023/07/17 06:32:35;;;;;;;3.38;1.00;;;;;;;14.02;100.00;100102.66;5029001;28;20057;-65
2023/07/17 06:35:05;;;;;;;2.08;0.90;;;;;;;14.03;100.00;100101.75;5029750;28;20046;-65
2023/07/17 06:37:32;;;;;;;2.08;0.85;;;;;;;14.16;100.00;100118.44;5029717;28;20053;-65
2023/07/17 06:39:59;;;;;;;2.30;0.85;;;;;;;14.51;100.00;100114.53;5015378;28;20468;-65
2023/07/17 06:42:26;;;;;;;2.85;1.05;;;;;;;14.36;100.00;100111.09;5021929;28;20065;-65
2023/07/17 06:44:52;;;;;;;2.92;1.10;;;;;;;14.31;100.00;100129.00;5036674;28;20504;-66
2023/07/17 06:47:19;;;;;;;2.72;1.02;;;;;;;14.20;100.00;100119.97;5019478;28;20128;-66
2023/07/17 06:50:01;;;;;;;2.13;0.90;;;;;;;14.06;100.00;100125.25;5014385;28;20045;-65
2023/07/17 06:52:28;;;;;;;2.08;0.85;;;;;;;14.32;100.00;100131.50;5031635;28;20045;-66
2023/07/17 06:54:55;;;;;;;2.88;1.00;;;;;;;14.11;100.00;100131.09;5028234;28;20543;-66
2023/07/17 06:57:29;;;;;;;3.25;0.98;;;;;;;14.13;100.00;100136.22;5027255;28;20068;-65
2023/07/17 06:59:56;;;;;;;5.28;1.10;;;;;;;14.17;100.00;100143.00;5024600;28;20132;-65
2023/07/17 07:02:23;;;;;;;2.30;1.00;;;;;;;14.07;100.00;100139.25;5027864;28;20045;-65
2023/07/17 07:04:49;;;;;;;3.53;0.93;;;;;;;14.11;100.00;100146.00;5027991;28;20514;-65
2023/07/17 07:07:16;;;;;;;1.85;1.00;;;;;;;14.44;100.00;100154.44;5002101;28;20046;-65
2023/07/17 07:09:45;;;;;;;5.63;1.23;;;;;;;14.37;100.00;100144.38;5019898;28;20046;-65
2023/07/17 07:12:11;;;;;;;2.60;1.00;;;;;;;14.51;100.00;100141.72;5014749;28;20148;-65
2023/07/17 07:14:38;;;;;;;3.45;1.30;;;;;;;14.66;100.00;100154.91;5017116;28;20077;-65
2023/07/17 07:17:05;;;;;;;4.30;1.25;;;;;;;14.66;100.00;100153.13;5011256;28;20052;-66
2023/07/17 07:19:32;;;;;;;2.80;1.00;;;;;;;14.57;100.00;100148.38;5018435;28;20060;-65
2023/07/17 07:21:59;;;;;;;2.92;1.10;;;;;;;14.79;100.00;100161.91;5010498;28;20053;-66
2023/07/17 07:24:26;;;;;;;5.30;1.10;;;;;;;14.89;100.00;100167.47;5012511;28;20045;-65
2023/07/17 07:26:52;;;;;;;2.42;1.02;;;;;;;14.67;100.00;100167.13;5015695;28;20076;-65
2023/07/17 07:29:20;;;;;;;2.67;1.00;;;;;;;14.81;100.00;100180.28;5019925;28;20046;-65
2023/07/17 07:31:46;;;;;;;3.90;1.00;;;;;;;14.69;100.00;100170.50;5024450;28;20100;-66
2023/07/17 07:34:13;;;;;;;3.60;1.20;;;;;;;14.74;100.00;100169.28;5029221;28;20415;-66
2023/07/17 07:36:40;;;;;;;4.55;1.58;;;;;;;14.66;100.00;100176.84;5018519;28;20818;-66
2023/07/17 07:39:07;;;;;;;2.45;1.00;;;;;;;14.70;100.00;100188.03;5019764;28;20550;-66
2023/07/17 07:41:35;;;;;;;5.05;1.52;;;;;;;14.71;100.00;100192.34;5023444;28;20137;-65
2023/07/17 07:44:02;;;;;;;3.13;1.02;;;;;;;14.69;100.00;100207.41;5029070;28;20379;-65
2023/07/17 07:46:29;;;;;;;3.60;1.23;;;;;;;14.72;100.00;100201.94;5024480;28;20056;-65
2023/07/17 07:48:56;;;;;;;4.32;1.20;;;;;;;14.91;100.00;100198.97;5018857;28;20083;-65
2023/07/17 07:51:22;;;;;;;3.28;1.10;;;;;;;15.12;100.00;100200.22;5025795;28;20308;-66
2023/07/17 07:53:49;;;;;;;3.20;1.05;;;;;;;15.26;100.00;100201.94;5025793;28;20041;-65
2023/07/17 07:56:16;;;;;;;6.15;1.48;;;;;;;15.11;100.00;100206.44;5027689;28;20072;-65
2023/07/17 07:58:43;;;;;;;2.83;1.00;;;;;;;15.22;100.00;100211.00;5028226;28;20049;-65
2023/07/17 08:01:10;;;;;;;1.88;1.00;;;;;;;15.51;100.00;100221.44;5025378;28;20065;-64
2023/07/17 08:03:38;;;;;;;3.65;1.20;;;;;;;15.62;100.00;100226.84;5028289;28;20053;-66
2023/07/17 08:06:04;;;;;;;5.28;1.20;;;;;;;15.73;100.00;100226.97;5030955;28;20072;-66
2023/07/17 08:08:31;;;;;;;3.15;1.05;;;;;;;15.60;100.00;100226.13;5029297;28;20049;-66
2023/07/17 08:10:58;;;;;;;4.57;1.13;;;;;;;15.85;100.00;100225.34;5023168;28;20403;-66
2023/07/17 08:13:25;;;;;;;5.10;1.40;;;;;;;15.78;100.00;100226.72;5016719;28;20698;-65
2023/07/17 08:15:51;;;;;;;5.38;1.20;;;;;;;15.96;100.00;100229.88;5018719;28;20050;-65
2023/07/17 08:18:18;;;;;;;5.63;1.30;;;;;;;15.91;100.00;100226.72;5004174;28;20479;-65
2023/07/17 08:20:45;;;;;;;3.20;1.20;;;;;;;15.93;100.00;100238.84;5015597;28;20050;-65
2023/07/17 08:23:11;;;;;;;4.53;1.42;;;;;;;15.86;100.00;100218.25;5011394;28;20411;-66
2023/07/17 08:25:38;;;;;;;7.03;1.45;;;;;;;15.99;100.00;100229.69;5024891;28;20057;-65
2023/07/17 08:28:05;;;;;;;4.22;1.20;;;;;;;16.36;100.00;100245.63;5032351;28;20091;-65
2023/07/17 08:30:32;;;;;;;5.03;1.25;;;;;;;16.39;100.00;100253.31;5038455;28;20056;-65
2023/07/17 08:32:58;;;;;;;7.00;1.38;;;;;;;16.32;100.00;100247.66;5035502;28;20289;-65
2023/07/17 08:35:25;;;;;;;6.45;1.48;;;;;;;16.41;100.00;100247.94;5030504;28;20338;-65
2023/07/17 08:37:52;;;;;;;5.55;1.52;;;;;;;16.18;100.00;100250.38;5037395;28;20567;-66
2023/07/17 08:40:19;;;;;;;4.40;1.45;;;;;;;16.32;100.00;100263.50;5025920;28;20045;-66
2023/07/17 08:42:47;;;;;;;5.05;1.10;;;;;;;16.52;100.00;100259.47;5030993;28;20042;-65
2023/07/17 08:45:14;;;;;;;7.03;3.83;;;;;;;16.93;100.00;100281.31;5031033;28;20051;-65
2023/07/17 08:47:41;;;;;;;3.70;1.30;;;;;;;16.52;100.00;100277.13;5030918;28;20491;-66
2023/07/17 08:50:11;;;;;;;4.95;1.30;;;;;;;16.50;100.00;100282.50;5009306;28;20069;-65
2023/07/17 08:52:38;;;;;;;4.10;1.08;;;;;;;16.89;100.00;100280.69;5031685;28;20057;-65
2023/07/17 08:55:05;;;;;;;4.35;1.27;;;;;;;16.95;100.00;100283.84;5031521;28;20056;-66
2023/07/17 08:57:34;;;;;;;3.80;1.10;;;;;;;16.84;100.00;100290.75;5030198;28;20422;-65
2023/07/17 09:00:01;;;;;;;5.43;1.05;;;;;;;17.14;100.00;100286.00;5022703;28;20060;-65
2023/07/17 09:02:28;;;;;;;4.00;1.23;;;;;;;17.09;100.00;100278.41;5029857;28;20099;-66
2023/07/17 09:04:55;;;;;;;2.20;1.00;;;;;;;17.41;100.00;100286.63;5029456;28;20052;-66
2023/07/17 09:07:21;;;;;;;4.05;1.20;;;;;;;17.83;100.00;100292.34;5029168;28;20132;-66
2023/07/17 09:10:19;;;;;;;2.95;0.77;;;;;;;18.11;100.00;100303.53;5010989;28;20717;-66
2023/07/17 09:12:57;;;;;;;5.15;1.25;;;;;;;17.83;100.00;100291.53;5014206;28;20054;-66
2023/07/17 09:15:24;;;;;;;5.97;1.00;;;;;;;17.88;100.00;100313.22;5014508;28;20049;-66
2023/07/17 09:17:52;;;;;;;6.57;1.35;;;;;;;17.56;100.00;100315.59;5035573;28;20056;-66
2023/07/17 09:20:19;;;;;;;7.25;1.20;;;;;;;17.38;100.00;100313.31;5015300;28;20197;-66
2023/07/17 09:22:47;;;;;;;4.88;1.17;;;;;;;17.26;100.00;100324.78;5029432;28;20056;-66
2023/07/17 09:25:15;;;;;;;5.53;1.17;;;;;;;17.49;100.00;100333.69;5024581;28;20053;-66
2023/07/17 09:27:47;;;;;;;5.05;1.35;;;;;;;17.50;100.00;100332.75;5018932;28;20353;-66
2023/07/17 09:30:16;;;;;;;3.75;1.10;;;;;;;17.17;100.00;100333.41;5015408;28;20442;-66
2023/07/17 09:32:44;;;;;;;4.53;1.17;;;;;;;17.30;100.00;100341.28;5013827;28;20387;-66
2023/07/17 09:35:12;;;;;;;6.18;1.20;;;;;;;17.15;100.00;100341.44;5020693;28;20407;-66
2023/07/17 09:37:44;;;;;;;6.28;1.58;;;;;;;16.87;100.00;100346.06;5028074;28;20072;-66
2023/07/17 09:40:15;;;;;;;4.27;1.33;;;;;;;16.95;100.00;100334.09;5026383;28;20055;-66
2023/07/17 09:42:44;;;;;;;5.65;1.20;;;;;;;16.91;100.00;100328.19;5009075;28;20518;-66
2023/07/17 09:45:12;;;;;;;3.67;1.13;;;;;;;17.23;100.00;100349.69;5027088;28;20049;-66
2023/07/17 09:47:39;;;;;;;5.90;1.30;;;;;;;17.13;100.00;100351.28;5009516;28;20057;-65
2023/07/17 09:50:13;;;;;;;4.65;1.25;;;;;;;17.12;100.00;100352.22;5023940;28;20053;-65
2023/07/17 09:52:42;;;;;;;4.68;1.30;;;;;;;17.13;100.00;100347.81;5013297;28;20053;-66
2023/07/17 09:55:09;;;;;;;3.47;1.02;;;;;;;17.13;100.00;100353.94;5027870;28;20045;-65
2023/07/17 09:57:37;;;;;;;4.32;1.27;;;;;;;17.20;100.00;100354.34;5010313;28;20053;-65
2023/07/17 10:00:10;;;;;;;2.58;1.08;;;;;;;17.19;100.00;100360.59;4999769;28;20391;-65
2023/07/17 10:02:48;;;;;;;4.72;1.30;;;;;;;17.32;100.00;100357.94;5025651;28;20387;-66
2023/07/17 10:05:15;;;;;;;4.35;1.23;;;;;;;16.96;100.00;100352.47;5028953;28;20046;-65
2023/07/17 10:07:43;;;;;;;7.95;1.30;;;;;;;16.99;100.00;100362.00;5029093;28;20048;-66
2023/07/17 10:10:10;;;;;;;5.78;1.23;;;;;;;16.82;100.00;100347.28;5027539;28;20049;-65
2023/07/17 10:12:38;;;;;;;3.90;1.30;;;;;;;16.84;100.00;100354.19;5011435;28;20415;-65
2023/07/17 10:15:06;;;;;;;5.32;1.50;;;;;;;16.77;100.00;100357.31;5020457;28;20057;-65
2023/07/17 10:17:34;;;;;;;3.83;1.30;;;;;;;16.92;100.00;100364.22;5016773;28;20047;-65
2023/07/17 10:20:08;;;;;;;4.80;1.38;;;;;;;16.70;100.00;100370.97;5024402;28;20057;-65
2023/07/17 10:22:44;;;;;;;7.30;1.35;;;;;;;17.12;100.00;100372.56;5018022;28;20140;-65
2023/07/17 10:25:17;;;;;;;4.90;1.30;;;;;;;17.16;100.00;100372.25;5022700;28;20041;-65
2023/07/17 10:27:52;;;;;;;4.13;1.10;;;;;;;17.02;100.00;100378.50;5025074;28;20111;-66
2023/07/17 10:30:37;;;;;;;9.23;2.03;;;;;;;16.72;100.00;100380.63;5015322;28;20451;-65
2023/07/17 10:33:19;;;;;;;6.25;1.38;;;;;;;16.81;100.00;100383.44;5023324;28;20506;-65
2023/07/17 10:35:47;;;;;;;3.80;1.00;;;;;;;17.20;100.00;100386.09;5024926;28;20132;-65
2023/07/17 10:38:16;;;;;;;4.47;1.35;;;;;;;17.03;100.00;100389.91;5019634;28;20046;-65
2023/07/17 10:40:43;;;;;;;5.53;1.30;;;;;;;17.15;100.00;100389.06;5023356;28;20057;-66
2023/07/17 10:43:11;;;;;;;4.55;1.10;;;;;;;17.19;100.00;100384.38;5006151;28;20057;-65
2023/07/17 10:45:38;;;;;;;5.22;1.30;;;;;;;17.06;100.00;100389.72;5026379;28;20387;-65
2023/07/17 10:48:06;;;;;;;5.85;1.20;;;;;;;17.51;100.00;100405.94;5020330;28;20052;-65
2023/07/17 10:50:33;;;;;;;3.78;1.15;;;;;;;17.84;100.00;100401.75;5020677;28;20076;-65
2023/07/17 10:53:05;;;;;;;4.53;1.10;;;;;;;17.67;100.00;100407.44;5016808;28;20046;-65
2023/07/17 10:55:32;;;;;;;4.53;1.42;;;;;;;17.63;100.00;100410.31;5024891;28;20048;-66
2023/07/17 10:58:00;;;;;;;6.15;1.30;;;;;;;17.36;100.00;100415.78;5013766;28;20045;-66
2023/07/17 11:00:27;;;;;;;5.97;1.38;;;;;;;17.43;100.00;100409.09;5013333;28;20490;-66
2023/07/17 11:02:57;;;;;;;3.90;1.27;;;;;;;17.71;100.00;100414.22;5014286;28;20050;-66
2023/07/17 11:05:24;;;;;;;5.35;1.40;;;;;;;17.98;100.00;100427.28;5029234;28;20042;-66
2023/07/17 11:07:50;;;;;;;3.80;1.27;;;;;;;17.88;100.00;100427.09;5033277;28;20045;-66
2023/07/17 11:10:17;;;;;;;6.80;1.60;;;;;;;17.74;100.00;100416.63;5028826;28;20050;-66
2023/07/17 11:12:44;;;;;;;4.07;1.42;;;;;;;18.21;100.00;100423.75;5020414;28;20418;-66
2023/07/17 11:15:17;;;;;;;7.20;1.80;;;;;;;18.24;100.00;100421.84;5022964;28;20428;-66
2023/07/17 11:17:45;;;;;;;7.63;1.73;;;;;;;18.21;100.00;100423.75;5035434;28;20099;-66
2023/07/17 11:20:14;;;;;;;4.30;1.15;;;;;;;18.57;100.00;100427.25;5031778;28;20108;-65
2023/07/17 11:22:41;;;;;;;4.55;1.30;;;;;;;18.31;100.00;100415.97;5029323;28;20045;-65